sensor_id;sensor_type;location;lat;lon;timestamp;P1;durP1;ratioP1;P2;durP2;ratioP2
53151;SDS011;39234;53.158;6.322;2022-12-17T00:02:18;210.57;;;39.20;;
53151;SDS011;39234;53.158;6.322;2022-12-17T00:05:03;203.65;;;43.75;;
53151;SDS011;39234;53.158;6.322;2022-12-17T00:07:54;225.07;;;42.72;;
53151;SDS011;39234;53.158;6.322;2022-12-17T00:10:39;284.25;;;45.30;;
53151;SDS011;39234;53.158;6.322;2022-12-17T00:13:24;195.48;;;41.08;;
53151;SDS011;39234;53.158;6.322;2022-12-17T00:16:19;223.00;;;46.10;;
53151;SDS011;39234;53.158;6.322;2022-12-17T00:19:04;155.75;;;42.75;;
53151;SDS011;39234;53.158;6.322;2022-12-17T00:21:49;213.05;;;43.47;;
53151;SDS011;39234;53.158;6.322;2022-12-17T00:24:34;204.27;;;42.63;;
53151;SDS011;39234;53.158;6.322;2022-12-17T00:27:19;228.70;;;49.85;;
53151;SDS011;39234;53.158;6.322;2022-12-17T00:30:04;357.35;;;63.95;;
53151;SDS011;39234;53.158;6.322;2022-12-17T00:32:49;258.02;;;65.07;;
53151;SDS011;39234;53.158;6.322;2022-12-17T00:35:34;289.30;;;64.97;;
53151;SDS011;39234;53.158;6.322;2022-12-17T00:38:19;251.95;;;51.20;;
53151;SDS011;39234;53.158;6.322;2022-12-17T00:41:04;242.65;;;49.60;;
53151;SDS011;39234;53.158;6.322;2022-12-17T00:43:49;246.68;;;50.17;;
53151;SDS011;39234;53.158;6.322;2022-12-17T00:46:34;204.07;;;50.42;;
53151;SDS011;39234;53.158;6.322;2022-12-17T00:49:19;194.10;;;48.30;;
53151;SDS011;39234;53.158;6.322;2022-12-17T00:52:04;192.88;;;48.92;;
53151;SDS011;39234;53.158;6.322;2022-12-17T00:54:49;170.50;;;47.90;;
53151;SDS011;39234;53.158;6.322;2022-12-17T00:57:33;174.75;;;47.53;;
53151;SDS011;39234;53.158;6.322;2022-12-17T01:00:18;145.80;;;44.28;;
53151;SDS011;39234;53.158;6.322;2022-12-17T01:03:07;161.75;;;45.05;;
53151;SDS011;39234;53.158;6.322;2022-12-17T01:05:51;177.90;;;45.58;;
53151;SDS011;39234;53.158;6.322;2022-12-17T01:08:36;134.48;;;42.63;;
53151;SDS011;39234;53.158;6.322;2022-12-17T01:11:21;112.38;;;42.30;;
53151;SDS011;39234;53.158;6.322;2022-12-17T01:14:06;122.93;;;39.55;;
53151;SDS011;39234;53.158;6.322;2022-12-17T01:16:52;139.13;;;44.75;;
53151;SDS011;39234;53.158;6.322;2022-12-17T01:19:36;129.18;;;41.85;;
53151;SDS011;39234;53.158;6.322;2022-12-17T01:22:22;130.40;;;42.03;;
53151;SDS011;39234;53.158;6.322;2022-12-17T01:25:07;119.03;;;40.28;;
53151;SDS011;39234;53.158;6.322;2022-12-17T01:27:52;123.43;;;44.47;;
53151;SDS011;39234;53.158;6.322;2022-12-17T01:30:37;132.68;;;45.22;;
53151;SDS011;39234;53.158;6.322;2022-12-17T01:33:22;113.45;;;41.83;;
53151;SDS011;39234;53.158;6.322;2022-12-17T01:36:07;119.80;;;43.58;;
53151;SDS011;39234;53.158;6.322;2022-12-17T01:38:52;112.47;;;43.13;;
53151;SDS011;39234;53.158;6.322;2022-12-17T01:41:37;126.60;;;45.65;;
53151;SDS011;39234;53.158;6.322;2022-12-17T01:47:19;112.60;;;42.67;;
53151;SDS011;39234;53.158;6.322;2022-12-17T01:50:11;110.50;;;41.35;;
53151;SDS011;39234;53.158;6.322;2022-12-17T01:52:56;110.38;;;40.10;;
53151;SDS011;39234;53.158;6.322;2022-12-17T01:55:41;100.72;;;38.42;;
53151;SDS011;39234;53.158;6.322;2022-12-17T01:58:26;105.90;;;40.45;;
53151;SDS011;39234;53.158;6.322;2022-12-17T02:01:11;100.35;;;38.55;;
53151;SDS011;39234;53.158;6.322;2022-12-17T02:03:56;112.60;;;42.90;;
53151;SDS011;39234;53.158;6.322;2022-12-17T02:06:42;98.40;;;37.90;;
53151;SDS011;39234;53.158;6.322;2022-12-17T02:09:53;98.68;;;36.85;;
53151;SDS011;39234;53.158;6.322;2022-12-17T02:12:41;87.05;;;33.53;;
53151;SDS011;39234;53.158;6.322;2022-12-17T02:15:30;94.60;;;38.55;;
53151;SDS011;39234;53.158;6.322;2022-12-17T02:18:18;96.03;;;37.00;;
53151;SDS011;39234;53.158;6.322;2022-12-17T02:21:04;92.03;;;38.22;;
53151;SDS011;39234;53.158;6.322;2022-12-17T02:26:42;82.53;;;34.70;;
53151;SDS011;39234;53.158;6.322;2022-12-17T02:29:29;84.93;;;34.92;;
53151;SDS011;39234;53.158;6.322;2022-12-17T02:32:15;96.57;;;37.33;;
53151;SDS011;39234;53.158;6.322;2022-12-17T02:35:02;73.57;;;30.75;;
53151;SDS011;39234;53.158;6.322;2022-12-17T02:37:48;86.70;;;35.80;;
53151;SDS011;39234;53.158;6.322;2022-12-17T02:40:33;85.40;;;35.28;;
53151;SDS011;39234;53.158;6.322;2022-12-17T02:43:20;88.80;;;36.08;;
53151;SDS011;39234;53.158;6.322;2022-12-17T02:46:05;87.03;;;36.53;;
53151;SDS011;39234;53.158;6.322;2022-12-17T02:48:51;85.00;;;36.30;;
53151;SDS011;39234;53.158;6.322;2022-12-17T02:51:36;72.10;;;32.08;;
53151;SDS011;39234;53.158;6.322;2022-12-17T02:54:20;80.90;;;33.45;;
53151;SDS011;39234;53.158;6.322;2022-12-17T02:57:05;79.13;;;34.75;;
53151;SDS011;39234;53.158;6.322;2022-12-17T02:59:50;86.80;;;36.70;;
53151;SDS011;39234;53.158;6.322;2022-12-17T03:02:35;69.00;;;30.27;;
53151;SDS011;39234;53.158;6.322;2022-12-17T03:05:20;71.80;;;32.55;;
53151;SDS011;39234;53.158;6.322;2022-12-17T03:08:05;74.13;;;31.27;;
53151;SDS011;39234;53.158;6.322;2022-12-17T03:10:50;78.07;;;33.85;;
53151;SDS011;39234;53.158;6.322;2022-12-17T03:13:35;78.63;;;34.30;;
53151;SDS011;39234;53.158;6.322;2022-12-17T03:16:20;81.00;;;33.85;;
53151;SDS011;39234;53.158;6.322;2022-12-17T03:19:05;89.00;;;34.80;;
53151;SDS011;39234;53.158;6.322;2022-12-17T03:21:49;74.88;;;33.90;;
53151;SDS011;39234;53.158;6.322;2022-12-17T03:24:34;73.68;;;32.80;;
53151;SDS011;39234;53.158;6.322;2022-12-17T03:27:19;80.43;;;36.25;;
53151;SDS011;39234;53.158;6.322;2022-12-17T03:30:04;64.65;;;30.30;;
53151;SDS011;39234;53.158;6.322;2022-12-17T03:32:49;78.93;;;34.38;;
53151;SDS011;39234;53.158;6.322;2022-12-17T03:35:34;68.90;;;32.00;;
53151;SDS011;39234;53.158;6.322;2022-12-17T03:38:19;75.50;;;33.20;;
53151;SDS011;39234;53.158;6.322;2022-12-17T03:41:04;77.60;;;32.92;;
53151;SDS011;39234;53.158;6.322;2022-12-17T03:43:48;72.57;;;35.13;;
53151;SDS011;39234;53.158;6.322;2022-12-17T03:46:33;72.80;;;32.45;;
53151;SDS011;39234;53.158;6.322;2022-12-17T03:49:18;64.75;;;30.48;;
53151;SDS011;39234;53.158;6.322;2022-12-17T03:52:03;73.00;;;34.20;;
53151;SDS011;39234;53.158;6.322;2022-12-17T03:54:48;69.60;;;32.33;;
53151;SDS011;39234;53.158;6.322;2022-12-17T03:57:33;67.63;;;29.92;;
53151;SDS011;39234;53.158;6.322;2022-12-17T04:00:18;72.85;;;34.90;;
53151;SDS011;39234;53.158;6.322;2022-12-17T04:03:02;69.97;;;32.55;;
53151;SDS011;39234;53.158;6.322;2022-12-17T04:05:47;69.35;;;32.78;;
53151;SDS011;39234;53.158;6.322;2022-12-17T04:08:32;67.95;;;33.30;;
53151;SDS011;39234;53.158;6.322;2022-12-17T04:11:17;75.80;;;33.88;;
53151;SDS011;39234;53.158;6.322;2022-12-17T04:14:02;59.47;;;30.13;;
53151;SDS011;39234;53.158;6.322;2022-12-17T04:16:47;68.93;;;33.65;;
53151;SDS011;39234;53.158;6.322;2022-12-17T04:19:32;72.40;;;33.58;;
53151;SDS011;39234;53.158;6.322;2022-12-17T04:22:17;66.85;;;31.90;;
53151;SDS011;39234;53.158;6.322;2022-12-17T04:25:02;71.10;;;34.35;;
53151;SDS011;39234;53.158;6.322;2022-12-17T04:27:47;72.10;;;33.72;;
53151;SDS011;39234;53.158;6.322;2022-12-17T04:30:32;77.55;;;33.63;;
53151;SDS011;39234;53.158;6.322;2022-12-17T04:33:17;72.75;;;35.78;;
53151;SDS011;39234;53.158;6.322;2022-12-17T04:36:02;64.07;;;32.95;;
53151;SDS011;39234;53.158;6.322;2022-12-17T04:38:47;74.30;;;34.50;;
53151;SDS011;39234;53.158;6.322;2022-12-17T04:41:32;72.03;;;32.97;;
53151;SDS011;39234;53.158;6.322;2022-12-17T04:44:17;64.97;;;31.30;;
53151;SDS011;39234;53.158;6.322;2022-12-17T04:47:02;70.25;;;31.42;;
53151;SDS011;39234;53.158;6.322;2022-12-17T04:49:47;66.22;;;34.10;;
53151;SDS011;39234;53.158;6.322;2022-12-17T04:52:31;67.53;;;33.72;;
53151;SDS011;39234;53.158;6.322;2022-12-17T04:55:16;68.70;;;33.80;;
53151;SDS011;39234;53.158;6.322;2022-12-17T04:58:03;64.63;;;31.30;;
53151;SDS011;39234;53.158;6.322;2022-12-17T05:00:51;60.30;;;31.58;;
53151;SDS011;39234;53.158;6.322;2022-12-17T05:03:36;63.88;;;33.88;;
53151;SDS011;39234;53.158;6.322;2022-12-17T05:06:22;62.40;;;30.88;;
53151;SDS011;39234;53.158;6.322;2022-12-17T05:09:07;54.55;;;28.48;;
53151;SDS011;39234;53.158;6.322;2022-12-17T05:11:52;61.70;;;31.35;;
53151;SDS011;39234;53.158;6.322;2022-12-17T05:14:37;61.80;;;31.58;;
53151;SDS011;39234;53.158;6.322;2022-12-17T05:17:22;62.60;;;32.15;;
53151;SDS011;39234;53.158;6.322;2022-12-17T05:20:07;63.63;;;32.92;;
53151;SDS011;39234;53.158;6.322;2022-12-17T05:22:52;62.17;;;30.73;;
53151;SDS011;39234;53.158;6.322;2022-12-17T05:25:37;63.40;;;33.67;;
53151;SDS011;39234;53.158;6.322;2022-12-17T05:28:22;65.18;;;32.63;;
53151;SDS011;39234;53.158;6.322;2022-12-17T05:31:07;66.05;;;33.92;;
53151;SDS011;39234;53.158;6.322;2022-12-17T05:33:52;62.58;;;33.03;;
53151;SDS011;39234;53.158;6.322;2022-12-17T05:36:37;61.15;;;31.30;;
53151;SDS011;39234;53.158;6.322;2022-12-17T05:39:22;65.97;;;31.88;;
53151;SDS011;39234;53.158;6.322;2022-12-17T05:42:07;60.63;;;32.35;;
53151;SDS011;39234;53.158;6.322;2022-12-17T05:44:51;58.97;;;32.10;;
53151;SDS011;39234;53.158;6.322;2022-12-17T05:47:37;65.10;;;32.25;;
53151;SDS011;39234;53.158;6.322;2022-12-17T05:50:21;70.18;;;33.95;;
53151;SDS011;39234;53.158;6.322;2022-12-17T05:53:07;66.45;;;33.50;;
53151;SDS011;39234;53.158;6.322;2022-12-17T05:55:52;69.15;;;33.80;;
53151;SDS011;39234;53.158;6.322;2022-12-17T05:58:37;62.35;;;29.83;;
53151;SDS011;39234;53.158;6.322;2022-12-17T06:01:22;61.20;;;30.65;;
53151;SDS011;39234;53.158;6.322;2022-12-17T06:04:08;70.43;;;32.55;;
53151;SDS011;39234;53.158;6.322;2022-12-17T06:06:53;61.58;;;31.27;;
53151;SDS011;39234;53.158;6.322;2022-12-17T06:09:38;55.55;;;29.63;;
53151;SDS011;39234;53.158;6.322;2022-12-17T06:12:22;60.92;;;30.25;;
53151;SDS011;39234;53.158;6.322;2022-12-17T06:15:08;70.30;;;32.75;;
53151;SDS011;39234;53.158;6.322;2022-12-17T06:17:53;59.30;;;29.88;;
53151;SDS011;39234;53.158;6.322;2022-12-17T06:20:38;65.32;;;30.13;;
53151;SDS011;39234;53.158;6.322;2022-12-17T06:23:23;64.25;;;32.75;;
53151;SDS011;39234;53.158;6.322;2022-12-17T06:26:08;67.90;;;34.30;;
53151;SDS011;39234;53.158;6.322;2022-12-17T06:28:52;64.47;;;30.90;;
53151;SDS011;39234;53.158;6.322;2022-12-17T06:31:37;73.78;;;35.03;;
53151;SDS011;39234;53.158;6.322;2022-12-17T06:34:22;69.93;;;35.17;;
53151;SDS011;39234;53.158;6.322;2022-12-17T06:37:07;75.32;;;36.92;;
53151;SDS011;39234;53.158;6.322;2022-12-17T06:39:52;83.40;;;39.60;;
53151;SDS011;39234;53.158;6.322;2022-12-17T06:42:54;72.88;;;35.67;;
53151;SDS011;39234;53.158;6.322;2022-12-17T06:45:39;66.70;;;29.83;;
53151;SDS011;39234;53.158;6.322;2022-12-17T06:48:24;71.35;;;37.38;;
53151;SDS011;39234;53.158;6.322;2022-12-17T06:51:09;61.20;;;32.63;;
53151;SDS011;39234;53.158;6.322;2022-12-17T06:53:53;70.07;;;33.97;;
53151;SDS011;39234;53.158;6.322;2022-12-17T06:56:39;67.13;;;34.42;;
53151;SDS011;39234;53.158;6.322;2022-12-17T06:59:28;61.53;;;31.85;;
53151;SDS011;39234;53.158;6.322;2022-12-17T07:02:13;65.22;;;33.85;;
53151;SDS011;39234;53.158;6.322;2022-12-17T07:04:58;65.65;;;34.45;;
53151;SDS011;39234;53.158;6.322;2022-12-17T07:07:43;66.95;;;34.22;;
53151;SDS011;39234;53.158;6.322;2022-12-17T07:10:28;67.82;;;33.83;;
53151;SDS011;39234;53.158;6.322;2022-12-17T07:13:13;64.35;;;33.95;;
53151;SDS011;39234;53.158;6.322;2022-12-17T07:15:58;68.95;;;35.10;;
53151;SDS011;39234;53.158;6.322;2022-12-17T07:18:43;67.28;;;35.67;;
53151;SDS011;39234;53.158;6.322;2022-12-17T07:21:28;58.75;;;28.85;;
53151;SDS011;39234;53.158;6.322;2022-12-17T07:24:13;62.90;;;32.65;;
53151;SDS011;39234;53.158;6.322;2022-12-17T07:26:57;63.10;;;32.78;;
53151;SDS011;39234;53.158;6.322;2022-12-17T07:29:42;65.53;;;33.30;;
53151;SDS011;39234;53.158;6.322;2022-12-17T07:32:27;65.57;;;33.35;;
53151;SDS011;39234;53.158;6.322;2022-12-17T07:35:12;69.45;;;34.47;;
53151;SDS011;39234;53.158;6.322;2022-12-17T07:37:58;68.15;;;35.35;;
53151;SDS011;39234;53.158;6.322;2022-12-17T07:40:43;67.43;;;34.10;;
53151;SDS011;39234;53.158;6.322;2022-12-17T07:43:28;70.18;;;34.83;;
53151;SDS011;39234;53.158;6.322;2022-12-17T07:46:14;74.28;;;35.85;;
53151;SDS011;39234;53.158;6.322;2022-12-17T07:48:59;68.93;;;33.70;;
53151;SDS011;39234;53.158;6.322;2022-12-17T07:51:44;66.70;;;35.50;;
53151;SDS011;39234;53.158;6.322;2022-12-17T07:54:29;75.20;;;35.92;;
53151;SDS011;39234;53.158;6.322;2022-12-17T07:57:13;70.60;;;36.88;;
53151;SDS011;39234;53.158;6.322;2022-12-17T07:59:59;71.10;;;35.47;;
53151;SDS011;39234;53.158;6.322;2022-12-17T08:02:43;74.45;;;35.08;;
53151;SDS011;39234;53.158;6.322;2022-12-17T08:05:28;66.35;;;32.50;;
53151;SDS011;39234;53.158;6.322;2022-12-17T08:08:13;69.07;;;33.47;;
53151;SDS011;39234;53.158;6.322;2022-12-17T08:10:58;69.78;;;36.20;;
53151;SDS011;39234;53.158;6.322;2022-12-17T08:13:43;72.57;;;35.08;;
53151;SDS011;39234;53.158;6.322;2022-12-17T08:16:28;61.78;;;29.30;;
53151;SDS011;39234;53.158;6.322;2022-12-17T08:19:13;64.82;;;32.70;;
53151;SDS011;39234;53.158;6.322;2022-12-17T08:21:58;67.10;;;32.38;;
53151;SDS011;39234;53.158;6.322;2022-12-17T08:24:43;74.85;;;37.25;;
53151;SDS011;39234;53.158;6.322;2022-12-17T08:27:27;81.03;;;37.85;;
53151;SDS011;39234;53.158;6.322;2022-12-17T08:30:13;77.82;;;36.08;;
53151;SDS011;39234;53.158;6.322;2022-12-17T08:33:04;74.55;;;35.60;;
53151;SDS011;39234;53.158;6.322;2022-12-17T08:35:52;78.63;;;37.13;;
53151;SDS011;39234;53.158;6.322;2022-12-17T08:38:37;74.13;;;36.75;;
53151;SDS011;39234;53.158;6.322;2022-12-17T08:41:22;77.10;;;35.53;;
53151;SDS011;39234;53.158;6.322;2022-12-17T08:44:07;74.93;;;36.88;;
53151;SDS011;39234;53.158;6.322;2022-12-17T08:46:51;81.10;;;37.55;;
53151;SDS011;39234;53.158;6.322;2022-12-17T08:49:36;77.47;;;36.22;;
53151;SDS011;39234;53.158;6.322;2022-12-17T08:52:21;85.22;;;38.83;;
53151;SDS011;39234;53.158;6.322;2022-12-17T08:55:06;68.07;;;32.00;;
53151;SDS011;39234;53.158;6.322;2022-12-17T08:57:52;74.68;;;35.72;;
53151;SDS011;39234;53.158;6.322;2022-12-17T09:00:37;71.55;;;34.85;;
53151;SDS011;39234;53.158;6.322;2022-12-17T09:03:22;79.38;;;37.55;;
53151;SDS011;39234;53.158;6.322;2022-12-17T09:06:07;78.80;;;36.17;;
53151;SDS011;39234;53.158;6.322;2022-12-17T09:08:51;79.35;;;36.25;;
53151;SDS011;39234;53.158;6.322;2022-12-17T09:11:36;83.22;;;36.45;;
53151;SDS011;39234;53.158;6.322;2022-12-17T09:14:21;80.25;;;35.53;;
53151;SDS011;39234;53.158;6.322;2022-12-17T09:17:06;81.72;;;37.30;;
53151;SDS011;39234;53.158;6.322;2022-12-17T09:19:51;78.35;;;36.50;;
53151;SDS011;39234;53.158;6.322;2022-12-17T09:22:36;78.93;;;34.35;;
53151;SDS011;39234;53.158;6.322;2022-12-17T09:25:21;74.85;;;34.25;;
53151;SDS011;39234;53.158;6.322;2022-12-17T09:28:05;82.10;;;37.47;;
53151;SDS011;39234;53.158;6.322;2022-12-17T09:31:01;81.32;;;36.78;;
53151;SDS011;39234;53.158;6.322;2022-12-17T09:33:46;79.47;;;34.47;;
53151;SDS011;39234;53.158;6.322;2022-12-17T09:36:31;77.85;;;35.88;;
53151;SDS011;39234;53.158;6.322;2022-12-17T09:39:16;77.88;;;36.13;;
53151;SDS011;39234;53.158;6.322;2022-12-17T09:42:21;77.50;;;35.97;;
53151;SDS011;39234;53.158;6.322;2022-12-17T09:45:15;75.38;;;34.70;;
53151;SDS011;39234;53.158;6.322;2022-12-17T09:51:29;75.50;;;34.80;;
53151;SDS011;39234;53.158;6.322;2022-12-17T09:54:33;77.65;;;36.15;;
53151;SDS011;39234;53.158;6.322;2022-12-17T09:57:20;76.20;;;35.55;;
53151;SDS011;39234;53.158;6.322;2022-12-17T10:00:09;67.38;;;31.92;;
53151;SDS011;39234;53.158;6.322;2022-12-17T10:02:56;73.20;;;34.53;;
53151;SDS011;39234;53.158;6.322;2022-12-17T10:05:41;72.05;;;33.63;;
53151;SDS011;39234;53.158;6.322;2022-12-17T10:08:27;74.60;;;34.25;;
53151;SDS011;39234;53.158;6.322;2022-12-17T10:11:22;70.63;;;33.15;;
53151;SDS011;39234;53.158;6.322;2022-12-17T10:14:23;77.25;;;33.35;;
53151;SDS011;39234;53.158;6.322;2022-12-17T10:17:15;69.32;;;32.85;;
53151;SDS011;39234;53.158;6.322;2022-12-17T10:20:00;68.75;;;30.88;;
53151;SDS011;39234;53.158;6.322;2022-12-17T10:22:49;70.28;;;32.55;;
53151;SDS011;39234;53.158;6.322;2022-12-17T10:25:34;69.20;;;34.13;;
53151;SDS011;39234;53.158;6.322;2022-12-17T10:28:22;80.68;;;36.10;;
53151;SDS011;39234;53.158;6.322;2022-12-17T10:31:08;76.25;;;34.92;;
53151;SDS011;39234;53.158;6.322;2022-12-17T10:33:56;75.15;;;34.60;;
53151;SDS011;39234;53.158;6.322;2022-12-17T10:36:50;77.80;;;34.88;;
53151;SDS011;39234;53.158;6.322;2022-12-17T10:39:36;74.63;;;34.08;;
53151;SDS011;39234;53.158;6.322;2022-12-17T10:45:23;70.20;;;35.20;;
53151;SDS011;39234;53.158;6.322;2022-12-17T10:51:05;69.22;;;33.97;;
53151;SDS011;39234;53.158;6.322;2022-12-17T10:54:00;65.78;;;33.80;;
53151;SDS011;39234;53.158;6.322;2022-12-17T10:56:51;64.65;;;34.95;;
53151;SDS011;39234;53.158;6.322;2022-12-17T10:59:36;65.93;;;33.47;;
53151;SDS011;39234;53.158;6.322;2022-12-17T11:02:25;71.05;;;35.42;;
53151;SDS011;39234;53.158;6.322;2022-12-17T11:05:21;71.13;;;35.55;;
53151;SDS011;39234;53.158;6.322;2022-12-17T11:08:08;71.55;;;36.35;;
53151;SDS011;39234;53.158;6.322;2022-12-17T11:10:55;68.85;;;35.08;;
53151;SDS011;39234;53.158;6.322;2022-12-17T11:13:40;69.35;;;32.60;;
53151;SDS011;39234;53.158;6.322;2022-12-17T11:16:28;62.72;;;33.80;;
53151;SDS011;39234;53.158;6.322;2022-12-17T11:22:37;71.28;;;36.05;;
53151;SDS011;39234;53.158;6.322;2022-12-17T11:25:25;68.13;;;34.75;;
53151;SDS011;39234;53.158;6.322;2022-12-17T11:28:20;68.97;;;36.70;;
53151;SDS011;39234;53.158;6.322;2022-12-17T11:31:54;54.72;;;31.17;;
53151;SDS011;39234;53.158;6.322;2022-12-17T11:34:14;66.32;;;36.40;;
53151;SDS011;39234;53.158;6.322;2022-12-17T11:37:06;68.75;;;35.30;;
53151;SDS011;39234;53.158;6.322;2022-12-17T11:39:58;57.97;;;29.48;;
53151;SDS011;39234;53.158;6.322;2022-12-17T11:42:54;62.33;;;33.72;;
53151;SDS011;39234;53.158;6.322;2022-12-17T11:48:46;62.40;;;34.05;;
53151;SDS011;39234;53.158;6.322;2022-12-17T11:51:36;66.20;;;35.40;;
53151;SDS011;39234;53.158;6.322;2022-12-17T11:54:31;66.75;;;35.20;;
53151;SDS011;39234;53.158;6.322;2022-12-17T11:57:26;64.60;;;35.67;;
53151;SDS011;39234;53.158;6.322;2022-12-17T12:00:16;65.32;;;37.50;;
53151;SDS011;39234;53.158;6.322;2022-12-17T12:05:57;71.97;;;36.15;;
53151;SDS011;39234;53.158;6.322;2022-12-17T12:11:55;66.78;;;36.58;;
53151;SDS011;39234;53.158;6.322;2022-12-17T12:17:37;67.40;;;36.75;;
53151;SDS011;39234;53.158;6.322;2022-12-17T12:23:53;66.22;;;36.20;;
53151;SDS011;39234;53.158;6.322;2022-12-17T12:26:33;78.22;;;36.53;;
53151;SDS011;39234;53.158;6.322;2022-12-17T12:29:42;73.00;;;36.15;;
53151;SDS011;39234;53.158;6.322;2022-12-17T12:35:15;67.75;;;33.25;;
53151;SDS011;39234;53.158;6.322;2022-12-17T12:38:02;67.82;;;33.85;;
53151;SDS011;39234;53.158;6.322;2022-12-17T12:43:33;63.40;;;34.95;;
53151;SDS011;39234;53.158;6.322;2022-12-17T12:52:00;72.15;;;37.53;;
53151;SDS011;39234;53.158;6.322;2022-12-17T12:57:32;67.15;;;36.33;;
53151;SDS011;39234;53.158;6.322;2022-12-17T13:03:18;65.22;;;35.78;;
53151;SDS011;39234;53.158;6.322;2022-12-17T13:06:04;63.38;;;36.22;;
53151;SDS011;39234;53.158;6.322;2022-12-17T13:08:30;61.10;;;33.50;;
53151;SDS011;39234;53.158;6.322;2022-12-17T13:10:57;64.00;;;36.47;;
53151;SDS011;39234;53.158;6.322;2022-12-17T13:13:34;66.40;;;35.67;;
53151;SDS011;39234;53.158;6.322;2022-12-17T13:18:46;62.72;;;34.38;;
53151;SDS011;39234;53.158;6.322;2022-12-17T13:23:42;63.28;;;36.72;;
53151;SDS011;39234;53.158;6.322;2022-12-17T13:26:28;63.40;;;34.75;;
53151;SDS011;39234;53.158;6.322;2022-12-17T13:29:00;64.43;;;35.30;;
53151;SDS011;39234;53.158;6.322;2022-12-17T13:31:31;71.23;;;35.83;;
53151;SDS011;39234;53.158;6.322;2022-12-17T13:41:54;61.42;;;34.47;;
53151;SDS011;39234;53.158;6.322;2022-12-17T13:44:24;69.03;;;38.72;;
53151;SDS011;39234;53.158;6.322;2022-12-17T13:46:51;69.05;;;39.05;;
53151;SDS011;39234;53.158;6.322;2022-12-17T13:51:43;65.05;;;35.78;;
53151;SDS011;39234;53.158;6.322;2022-12-17T13:54:16;69.10;;;36.90;;
53151;SDS011;39234;53.158;6.322;2022-12-17T13:56:43;70.65;;;36.05;;
53151;SDS011;39234;53.158;6.322;2022-12-17T13:59:14;69.60;;;38.67;;
53151;SDS011;39234;53.158;6.322;2022-12-17T14:01:45;66.65;;;34.80;;
53151;SDS011;39234;53.158;6.322;2022-12-17T14:04:24;68.93;;;39.25;;
53151;SDS011;39234;53.158;6.322;2022-12-17T14:06:51;70.90;;;37.15;;
53151;SDS011;39234;53.158;6.322;2022-12-17T14:09:19;71.25;;;38.58;;
53151;SDS011;39234;53.158;6.322;2022-12-17T14:11:47;73.63;;;38.67;;
53151;SDS011;39234;53.158;6.322;2022-12-17T14:14:36;74.75;;;37.60;;
53151;SDS011;39234;53.158;6.322;2022-12-17T14:17:03;74.57;;;38.88;;
53151;SDS011;39234;53.158;6.322;2022-12-17T14:19:29;69.45;;;36.95;;
53151;SDS011;39234;53.158;6.322;2022-12-17T14:21:56;70.32;;;38.22;;
53151;SDS011;39234;53.158;6.322;2022-12-17T14:24:22;61.47;;;34.05;;
53151;SDS011;39234;53.158;6.322;2022-12-17T14:26:57;71.47;;;38.90;;
53151;SDS011;39234;53.158;6.322;2022-12-17T14:29:28;74.18;;;40.17;;
53151;SDS011;39234;53.158;6.322;2022-12-17T14:32:02;77.57;;;39.80;;
53151;SDS011;39234;53.158;6.322;2022-12-17T14:34:43;69.80;;;37.38;;
53151;SDS011;39234;53.158;6.322;2022-12-17T14:37:12;76.45;;;40.30;;
53151;SDS011;39234;53.158;6.322;2022-12-17T14:39:42;75.25;;;37.58;;
53151;SDS011;39234;53.158;6.322;2022-12-17T14:42:14;74.57;;;38.92;;
53151;SDS011;39234;53.158;6.322;2022-12-17T14:44:51;72.78;;;37.65;;
53151;SDS011;39234;53.158;6.322;2022-12-17T14:52:33;74.82;;;36.88;;
53151;SDS011;39234;53.158;6.322;2022-12-17T14:54:59;79.35;;;40.45;;
53151;SDS011;39234;53.158;6.322;2022-12-17T14:57:26;79.10;;;40.67;;
53151;SDS011;39234;53.158;6.322;2022-12-17T14:59:52;78.90;;;40.65;;
53151;SDS011;39234;53.158;6.322;2022-12-17T15:02:22;78.93;;;39.58;;
53151;SDS011;39234;53.158;6.322;2022-12-17T15:04:50;77.88;;;37.53;;
53151;SDS011;39234;53.158;6.322;2022-12-17T15:07:20;81.78;;;38.97;;
53151;SDS011;39234;53.158;6.322;2022-12-17T15:09:47;73.07;;;37.45;;
53151;SDS011;39234;53.158;6.322;2022-12-17T15:12:14;85.95;;;41.83;;
53151;SDS011;39234;53.158;6.322;2022-12-17T15:14:40;79.93;;;40.17;;
53151;SDS011;39234;53.158;6.322;2022-12-17T15:17:06;83.53;;;40.10;;
53151;SDS011;39234;53.158;6.322;2022-12-17T15:19:35;83.22;;;40.50;;
53151;SDS011;39234;53.158;6.322;2022-12-17T15:22:01;88.13;;;42.85;;
53151;SDS011;39234;53.158;6.322;2022-12-17T15:24:28;89.80;;;40.22;;
53151;SDS011;39234;53.158;6.322;2022-12-17T15:26:54;86.28;;;40.75;;
53151;SDS011;39234;53.158;6.322;2022-12-17T15:29:20;83.82;;;40.58;;
53151;SDS011;39234;53.158;6.322;2022-12-17T15:31:46;89.25;;;41.72;;
53151;SDS011;39234;53.158;6.322;2022-12-17T15:34:12;80.82;;;39.55;;
53151;SDS011;39234;53.158;6.322;2022-12-17T15:36:38;85.03;;;40.97;;
53151;SDS011;39234;53.158;6.322;2022-12-17T15:39:04;80.70;;;36.92;;
53151;SDS011;39234;53.158;6.322;2022-12-17T15:41:31;84.15;;;39.95;;
53151;SDS011;39234;53.158;6.322;2022-12-17T15:44:16;85.18;;;38.42;;
53151;SDS011;39234;53.158;6.322;2022-12-17T15:46:42;91.25;;;41.28;;
53151;SDS011;39234;53.158;6.322;2022-12-17T15:49:08;87.53;;;41.13;;
53151;SDS011;39234;53.158;6.322;2022-12-17T15:51:34;81.72;;;39.25;;
53151;SDS011;39234;53.158;6.322;2022-12-17T15:54:00;83.38;;;39.50;;
53151;SDS011;39234;53.158;6.322;2022-12-17T15:56:27;85.63;;;39.97;;
53151;SDS011;39234;53.158;6.322;2022-12-17T15:58:56;92.03;;;41.63;;
53151;SDS011;39234;53.158;6.322;2022-12-17T16:01:22;88.28;;;38.40;;
53151;SDS011;39234;53.158;6.322;2022-12-17T16:03:49;93.18;;;37.67;;
53151;SDS011;39234;53.158;6.322;2022-12-17T16:06:15;93.47;;;41.20;;
53151;SDS011;39234;53.158;6.322;2022-12-17T16:08:41;84.70;;;36.55;;
53151;SDS011;39234;53.158;6.322;2022-12-17T16:11:07;92.65;;;37.55;;
53151;SDS011;39234;53.158;6.322;2022-12-17T16:13:34;86.43;;;38.85;;
53151;SDS011;39234;53.158;6.322;2022-12-17T16:16:00;86.80;;;37.88;;
53151;SDS011;39234;53.158;6.322;2022-12-17T16:18:26;90.95;;;39.05;;
53151;SDS011;39234;53.158;6.322;2022-12-17T16:20:52;88.35;;;39.78;;
53151;SDS011;39234;53.158;6.322;2022-12-17T16:23:19;90.45;;;38.33;;
53151;SDS011;39234;53.158;6.322;2022-12-17T16:25:58;88.22;;;37.38;;
53151;SDS011;39234;53.158;6.322;2022-12-17T16:28:26;73.18;;;31.63;;
53151;SDS011;39234;53.158;6.322;2022-12-17T16:33:34;86.85;;;36.92;;
53151;SDS011;39234;53.158;6.322;2022-12-17T16:36:01;90.47;;;38.05;;
53151;SDS011;39234;53.158;6.322;2022-12-17T16:38:27;91.82;;;37.78;;
53151;SDS011;39234;53.158;6.322;2022-12-17T16:40:58;92.82;;;38.35;;
53151;SDS011;39234;53.158;6.322;2022-12-17T16:43:24;93.47;;;37.10;;
53151;SDS011;39234;53.158;6.322;2022-12-17T16:45:51;93.28;;;37.47;;
53151;SDS011;39234;53.158;6.322;2022-12-17T16:48:18;92.78;;;37.17;;
53151;SDS011;39234;53.158;6.322;2022-12-17T16:50:44;85.13;;;35.90;;
53151;SDS011;39234;53.158;6.322;2022-12-17T16:53:12;96.75;;;38.75;;
53151;SDS011;39234;53.158;6.322;2022-12-17T16:55:39;95.50;;;39.28;;
53151;SDS011;39234;53.158;6.322;2022-12-17T16:58:05;102.68;;;38.88;;
53151;SDS011;39234;53.158;6.322;2022-12-17T17:00:32;98.90;;;37.70;;
53151;SDS011;39234;53.158;6.322;2022-12-17T17:02:58;98.90;;;40.70;;